Impacts TAF Board INFO
FOR SITUATIONAL AWARENESS. NOT TO BE USED FOR FLIGHT PLANNING PURPOSES.
IDs:

KLAS - Las Vegas/McCarran I, NV, US

Issued at 1129 UTC 19 Nov 2017
Updated at 1409 UTC 19 Nov 2017
Potential Impact None Slight Moderate High
Time<<20/15Z 20/16Z 20/17Z 20/18Z 20/19Z 20/20Z 20/21Z 20/22Z 20/23Z 21/00Z 21/01Z 21/02Z 21/03Z
Type PRVL PRVL PRVL
VIS >6 >6 >6
CIG 250 250 250
Cover BKN BKN BKN
FltCat VFR VFR VFR
WX -- -- --
WDir 210 VRB VRB
WSpd 6 5 5
WGst -- -- --

Raw TAF
KLAS 191129Z 1912/2018 21006KT P6SM SCT250
  FM191600 VRB05KT P6SM SCT250
  FM200300 21006KT P6SM BKN250
  FM201600 VRB05KT P6SM BKN250


METAR Board
Radar Display
Forecast Discussion

FOR SITUATIONAL AWARENESS. NOT TO BE USED FOR FLIGHT PLANNING PURPOSES.